Terminal Aerodrome Forecast
Issued by NWS

Home | Current Version | Previous Version | Text Only | Print | Product List | Glossary Off
Versions: 1 2 3 4 5 6 7 8 9 10 11 12 13 14 15 16 17

694
FTUS43 KTOP 240112 AAB
TAFFOE
TAF AMD
KFOE 240112Z 2401/2424 32017G20KT P6SM VCSH BKN050
     FM240200 32009KT P6SM SCT025 BKN035
     FM241500 34013G18KT P6SM SCT050=

USA.gov is the U.S. government's official web portal to all federal, state and local government web resources and services.